sensor_id;sensor_type;location;lat;lon;timestamp;P1;durP1;ratioP1;P2;durP2;ratioP2
58468;SDS011;44257;44.804;10.220;2022-11-20T00:00:47;12.15;;;5.43;;
58468;SDS011;44257;44.804;10.220;2022-11-20T00:03:13;20.65;;;6.15;;
58468;SDS011;44257;44.804;10.220;2022-11-20T00:05:39;13.63;;;6.55;;
58468;SDS011;44257;44.804;10.220;2022-11-20T00:08:05;10.43;;;5.45;;
58468;SDS011;44257;44.804;10.220;2022-11-20T00:10:31;12.75;;;6.68;;
58468;SDS011;44257;44.804;10.220;2022-11-20T00:12:57;9.75;;;5.53;;
58468;SDS011;44257;44.804;10.220;2022-11-20T00:15:23;14.95;;;5.65;;
58468;SDS011;44257;44.804;10.220;2022-11-20T00:17:49;10.80;;;5.97;;
58468;SDS011;44257;44.804;10.220;2022-11-20T00:20:15;8.55;;;5.80;;
58468;SDS011;44257;44.804;10.220;2022-11-20T00:22:41;10.55;;;5.10;;
58468;SDS011;44257;44.804;10.220;2022-11-20T00:25:07;9.60;;;4.82;;
58468;SDS011;44257;44.804;10.220;2022-11-20T00:27:34;10.18;;;5.25;;
58468;SDS011;44257;44.804;10.220;2022-11-20T00:29:59;10.00;;;5.20;;
58468;SDS011;44257;44.804;10.220;2022-11-20T00:32:25;9.68;;;4.50;;
58468;SDS011;44257;44.804;10.220;2022-11-20T00:34:51;8.30;;;4.32;;
58468;SDS011;44257;44.804;10.220;2022-11-20T00:37:17;9.93;;;4.55;;
58468;SDS011;44257;44.804;10.220;2022-11-20T00:39:43;7.63;;;4.65;;
58468;SDS011;44257;44.804;10.220;2022-11-20T00:42:08;8.07;;;4.85;;
58468;SDS011;44257;44.804;10.220;2022-11-20T00:44:34;11.38;;;5.68;;
58468;SDS011;44257;44.804;10.220;2022-11-20T00:47:00;10.32;;;4.03;;
58468;SDS011;44257;44.804;10.220;2022-11-20T00:49:26;10.40;;;6.00;;
58468;SDS011;44257;44.804;10.220;2022-11-20T00:51:52;8.15;;;5.13;;
58468;SDS011;44257;44.804;10.220;2022-11-20T00:54:17;6.88;;;3.47;;
58468;SDS011;44257;44.804;10.220;2022-11-20T00:56:43;8.15;;;5.05;;
58468;SDS011;44257;44.804;10.220;2022-11-20T00:59:09;8.10;;;4.10;;
58468;SDS011;44257;44.804;10.220;2022-11-20T01:01:36;10.07;;;5.78;;
58468;SDS011;44257;44.804;10.220;2022-11-20T01:04:02;12.02;;;4.35;;
58468;SDS011;44257;44.804;10.220;2022-11-20T01:06:29;7.63;;;2.85;;
58468;SDS011;44257;44.804;10.220;2022-11-20T01:08:57;9.45;;;4.13;;
58468;SDS011;44257;44.804;10.220;2022-11-20T01:11:26;10.45;;;6.30;;
58468;SDS011;44257;44.804;10.220;2022-11-20T01:13:54;9.27;;;4.35;;
58468;SDS011;44257;44.804;10.220;2022-11-20T01:16:22;6.93;;;3.83;;
58468;SDS011;44257;44.804;10.220;2022-11-20T01:18:50;9.23;;;4.68;;
58468;SDS011;44257;44.804;10.220;2022-11-20T01:23:46;7.43;;;4.00;;
58468;SDS011;44257;44.804;10.220;2022-11-20T01:26:14;7.35;;;4.47;;
58468;SDS011;44257;44.804;10.220;2022-11-20T01:28:42;10.45;;;4.75;;
58468;SDS011;44257;44.804;10.220;2022-11-20T01:33:48;10.02;;;4.38;;
58468;SDS011;44257;44.804;10.220;2022-11-20T01:36:17;9.23;;;4.55;;
58468;SDS011;44257;44.804;10.220;2022-11-20T01:38:44;13.48;;;5.78;;
58468;SDS011;44257;44.804;10.220;2022-11-20T01:41:11;8.18;;;4.05;;
58468;SDS011;44257;44.804;10.220;2022-11-20T01:43:59;7.32;;;3.95;;
58468;SDS011;44257;44.804;10.220;2022-11-20T01:46:25;6.75;;;3.42;;
58468;SDS011;44257;44.804;10.220;2022-11-20T01:48:53;9.27;;;4.53;;
58468;SDS011;44257;44.804;10.220;2022-11-20T01:54:00;11.75;;;5.15;;
58468;SDS011;44257;44.804;10.220;2022-11-20T01:56:29;9.73;;;5.70;;
58468;SDS011;44257;44.804;10.220;2022-11-20T01:58:59;6.57;;;3.90;;
58468;SDS011;44257;44.804;10.220;2022-11-20T02:01:29;7.03;;;4.43;;
58468;SDS011;44257;44.804;10.220;2022-11-20T02:03:55;8.07;;;4.90;;
58468;SDS011;44257;44.804;10.220;2022-11-20T02:06:23;13.48;;;5.55;;
58468;SDS011;44257;44.804;10.220;2022-11-20T02:08:52;6.57;;;4.07;;
58468;SDS011;44257;44.804;10.220;2022-11-20T02:11:19;9.48;;;3.13;;
58468;SDS011;44257;44.804;10.220;2022-11-20T02:13:45;7.65;;;3.92;;
58468;SDS011;44257;44.804;10.220;2022-11-20T02:16:24;6.68;;;3.15;;
58468;SDS011;44257;44.804;10.220;2022-11-20T02:18:53;9.63;;;5.35;;
58468;SDS011;44257;44.804;10.220;2022-11-20T02:21:28;5.57;;;3.72;;
58468;SDS011;44257;44.804;10.220;2022-11-20T02:24:03;7.88;;;4.45;;
58468;SDS011;44257;44.804;10.220;2022-11-20T02:26:52;5.88;;;3.03;;
58468;SDS011;44257;44.804;10.220;2022-11-20T02:34:46;10.27;;;4.20;;
58468;SDS011;44257;44.804;10.220;2022-11-20T02:37:12;11.65;;;4.15;;
58468;SDS011;44257;44.804;10.220;2022-11-20T02:39:39;8.20;;;4.28;;
58468;SDS011;44257;44.804;10.220;2022-11-20T02:42:06;8.75;;;4.72;;
58468;SDS011;44257;44.804;10.220;2022-11-20T02:44:32;7.15;;;3.92;;
58468;SDS011;44257;44.804;10.220;2022-11-20T02:46:58;10.25;;;4.63;;
58468;SDS011;44257;44.804;10.220;2022-11-20T02:49:25;8.82;;;3.45;;
58468;SDS011;44257;44.804;10.220;2022-11-20T02:51:51;5.00;;;3.75;;
58468;SDS011;44257;44.804;10.220;2022-11-20T02:54:17;9.93;;;3.80;;
58468;SDS011;44257;44.804;10.220;2022-11-20T02:56:42;9.27;;;4.75;;
58468;SDS011;44257;44.804;10.220;2022-11-20T02:59:08;8.35;;;3.88;;
58468;SDS011;44257;44.804;10.220;2022-11-20T03:01:35;8.60;;;4.97;;
58468;SDS011;44257;44.804;10.220;2022-11-20T03:04:01;8.23;;;4.07;;
58468;SDS011;44257;44.804;10.220;2022-11-20T03:06:27;7.68;;;5.03;;
58468;SDS011;44257;44.804;10.220;2022-11-20T03:08:54;5.20;;;3.55;;
58468;SDS011;44257;44.804;10.220;2022-11-20T03:11:20;6.25;;;3.22;;
58468;SDS011;44257;44.804;10.220;2022-11-20T03:13:46;6.18;;;3.78;;
58468;SDS011;44257;44.804;10.220;2022-11-20T03:16:17;6.50;;;4.20;;
58468;SDS011;44257;44.804;10.220;2022-11-20T03:18:44;10.45;;;3.08;;
58468;SDS011;44257;44.804;10.220;2022-11-20T03:21:11;6.40;;;3.15;;
58468;SDS011;44257;44.804;10.220;2022-11-20T03:23:38;5.72;;;4.57;;
58468;SDS011;44257;44.804;10.220;2022-11-20T03:26:12;6.95;;;4.18;;
58468;SDS011;44257;44.804;10.220;2022-11-20T03:28:40;13.35;;;4.75;;
58468;SDS011;44257;44.804;10.220;2022-11-20T03:31:11;9.00;;;3.88;;
58468;SDS011;44257;44.804;10.220;2022-11-20T03:33:39;7.18;;;4.57;;
58468;SDS011;44257;44.804;10.220;2022-11-20T03:36:07;8.57;;;4.53;;
58468;SDS011;44257;44.804;10.220;2022-11-20T03:38:34;7.03;;;4.32;;
58468;SDS011;44257;44.804;10.220;2022-11-20T03:41:02;8.27;;;3.67;;
58468;SDS011;44257;44.804;10.220;2022-11-20T03:43:29;10.65;;;4.90;;
58468;SDS011;44257;44.804;10.220;2022-11-20T03:45:56;5.90;;;3.67;;
58468;SDS011;44257;44.804;10.220;2022-11-20T03:48:22;8.43;;;4.78;;
58468;SDS011;44257;44.804;10.220;2022-11-20T03:50:48;9.95;;;5.70;;
58468;SDS011;44257;44.804;10.220;2022-11-20T03:53:14;6.88;;;3.80;;
58468;SDS011;44257;44.804;10.220;2022-11-20T03:55:41;8.02;;;4.28;;
58468;SDS011;44257;44.804;10.220;2022-11-20T03:58:07;6.63;;;4.20;;
58468;SDS011;44257;44.804;10.220;2022-11-20T04:00:33;9.18;;;3.72;;
58468;SDS011;44257;44.804;10.220;2022-11-20T04:03:00;7.00;;;4.13;;
58468;SDS011;44257;44.804;10.220;2022-11-20T04:05:26;8.77;;;3.33;;
58468;SDS011;44257;44.804;10.220;2022-11-20T04:07:52;11.80;;;5.63;;
58468;SDS011;44257;44.804;10.220;2022-11-20T04:10:18;7.70;;;4.72;;
58468;SDS011;44257;44.804;10.220;2022-11-20T04:12:44;7.32;;;3.72;;
58468;SDS011;44257;44.804;10.220;2022-11-20T04:15:10;10.23;;;4.63;;
58468;SDS011;44257;44.804;10.220;2022-11-20T04:17:36;8.30;;;4.22;;
58468;SDS011;44257;44.804;10.220;2022-11-20T04:20:02;8.73;;;4.63;;
58468;SDS011;44257;44.804;10.220;2022-11-20T04:22:29;11.05;;;4.97;;
58468;SDS011;44257;44.804;10.220;2022-11-20T04:24:54;8.30;;;3.92;;
58468;SDS011;44257;44.804;10.220;2022-11-20T04:27:20;8.55;;;4.75;;
58468;SDS011;44257;44.804;10.220;2022-11-20T04:29:46;7.90;;;3.95;;
58468;SDS011;44257;44.804;10.220;2022-11-20T04:32:12;6.97;;;3.92;;
58468;SDS011;44257;44.804;10.220;2022-11-20T04:34:38;8.52;;;3.65;;
58468;SDS011;44257;44.804;10.220;2022-11-20T04:37:04;8.25;;;3.38;;
58468;SDS011;44257;44.804;10.220;2022-11-20T04:39:30;8.02;;;4.28;;
58468;SDS011;44257;44.804;10.220;2022-11-20T04:41:56;8.88;;;4.75;;
58468;SDS011;44257;44.804;10.220;2022-11-20T04:44:41;10.80;;;3.45;;
58468;SDS011;44257;44.804;10.220;2022-11-20T04:47:06;7.07;;;3.30;;
58468;SDS011;44257;44.804;10.220;2022-11-20T04:49:32;15.18;;;5.28;;
58468;SDS011;44257;44.804;10.220;2022-11-20T04:51:59;10.25;;;5.22;;
58468;SDS011;44257;44.804;10.220;2022-11-20T04:54:24;9.05;;;4.15;;
58468;SDS011;44257;44.804;10.220;2022-11-20T04:56:50;9.00;;;4.78;;
58468;SDS011;44257;44.804;10.220;2022-11-20T04:59:16;6.32;;;3.60;;
58468;SDS011;44257;44.804;10.220;2022-11-20T05:01:42;6.32;;;3.70;;
58468;SDS011;44257;44.804;10.220;2022-11-20T05:04:08;15.05;;;4.80;;
58468;SDS011;44257;44.804;10.220;2022-11-20T05:06:33;11.43;;;5.43;;
58468;SDS011;44257;44.804;10.220;2022-11-20T05:08:59;10.27;;;6.07;;
58468;SDS011;44257;44.804;10.220;2022-11-20T05:11:26;5.47;;;3.33;;
58468;SDS011;44257;44.804;10.220;2022-11-20T05:13:54;6.18;;;3.83;;
58468;SDS011;44257;44.804;10.220;2022-11-20T05:16:21;8.02;;;4.88;;
58468;SDS011;44257;44.804;10.220;2022-11-20T05:18:48;11.43;;;5.13;;
58468;SDS011;44257;44.804;10.220;2022-11-20T05:21:15;11.63;;;4.95;;
58468;SDS011;44257;44.804;10.220;2022-11-20T05:23:42;8.23;;;4.28;;
58468;SDS011;44257;44.804;10.220;2022-11-20T05:26:12;9.50;;;4.45;;
58468;SDS011;44257;44.804;10.220;2022-11-20T05:28:47;7.95;;;3.88;;
58468;SDS011;44257;44.804;10.220;2022-11-20T05:31:16;10.60;;;4.50;;
58468;SDS011;44257;44.804;10.220;2022-11-20T05:33:44;8.85;;;5.00;;
58468;SDS011;44257;44.804;10.220;2022-11-20T05:36:11;12.25;;;4.50;;
58468;SDS011;44257;44.804;10.220;2022-11-20T05:38:37;13.80;;;4.90;;
58468;SDS011;44257;44.804;10.220;2022-11-20T05:41:12;11.23;;;3.80;;
58468;SDS011;44257;44.804;10.220;2022-11-20T05:43:40;11.88;;;4.03;;
58468;SDS011;44257;44.804;10.220;2022-11-20T05:46:08;8.80;;;4.05;;
58468;SDS011;44257;44.804;10.220;2022-11-20T05:48:35;8.80;;;5.05;;
58468;SDS011;44257;44.804;10.220;2022-11-20T05:51:03;10.32;;;5.18;;
58468;SDS011;44257;44.804;10.220;2022-11-20T05:53:31;14.50;;;5.72;;
58468;SDS011;44257;44.804;10.220;2022-11-20T05:55:59;7.85;;;3.25;;
58468;SDS011;44257;44.804;10.220;2022-11-20T05:58:26;14.60;;;5.47;;
58468;SDS011;44257;44.804;10.220;2022-11-20T06:00:53;9.45;;;4.15;;
58468;SDS011;44257;44.804;10.220;2022-11-20T06:03:19;9.50;;;3.50;;
58468;SDS011;44257;44.804;10.220;2022-11-20T06:05:45;9.20;;;4.35;;
58468;SDS011;44257;44.804;10.220;2022-11-20T06:08:12;5.85;;;4.13;;
58468;SDS011;44257;44.804;10.220;2022-11-20T06:10:38;9.20;;;5.10;;
58468;SDS011;44257;44.804;10.220;2022-11-20T06:13:03;9.07;;;4.80;;
58468;SDS011;44257;44.804;10.220;2022-11-20T06:15:29;10.45;;;5.00;;
58468;SDS011;44257;44.804;10.220;2022-11-20T06:17:55;11.82;;;4.97;;
58468;SDS011;44257;44.804;10.220;2022-11-20T06:20:21;8.10;;;5.35;;
58468;SDS011;44257;44.804;10.220;2022-11-20T06:22:47;10.95;;;6.18;;
58468;SDS011;44257;44.804;10.220;2022-11-20T06:25:13;8.90;;;4.65;;
58468;SDS011;44257;44.804;10.220;2022-11-20T06:27:39;9.98;;;5.38;;
58468;SDS011;44257;44.804;10.220;2022-11-20T06:30:05;8.25;;;4.68;;
58468;SDS011;44257;44.804;10.220;2022-11-20T06:32:32;9.27;;;4.30;;
58468;SDS011;44257;44.804;10.220;2022-11-20T06:34:58;8.75;;;4.72;;
58468;SDS011;44257;44.804;10.220;2022-11-20T06:37:24;9.52;;;4.55;;
58468;SDS011;44257;44.804;10.220;2022-11-20T06:39:49;9.13;;;2.95;;
58468;SDS011;44257;44.804;10.220;2022-11-20T06:42:15;10.30;;;5.57;;
58468;SDS011;44257;44.804;10.220;2022-11-20T06:44:41;12.05;;;5.65;;
58468;SDS011;44257;44.804;10.220;2022-11-20T06:47:07;8.27;;;5.72;;
58468;SDS011;44257;44.804;10.220;2022-11-20T06:49:33;19.08;;;5.72;;
58468;SDS011;44257;44.804;10.220;2022-11-20T06:51:59;11.88;;;4.13;;
58468;SDS011;44257;44.804;10.220;2022-11-20T06:54:25;10.48;;;6.15;;
58468;SDS011;44257;44.804;10.220;2022-11-20T06:56:51;11.02;;;3.92;;
58468;SDS011;44257;44.804;10.220;2022-11-20T06:59:16;10.75;;;4.80;;
58468;SDS011;44257;44.804;10.220;2022-11-20T07:01:42;14.50;;;4.53;;
58468;SDS011;44257;44.804;10.220;2022-11-20T07:04:08;14.90;;;6.13;;
58468;SDS011;44257;44.804;10.220;2022-11-20T07:06:34;14.52;;;6.18;;
58468;SDS011;44257;44.804;10.220;2022-11-20T07:09:00;13.35;;;4.60;;
58468;SDS011;44257;44.804;10.220;2022-11-20T07:11:26;11.40;;;5.88;;
58468;SDS011;44257;44.804;10.220;2022-11-20T07:13:52;12.25;;;4.60;;
58468;SDS011;44257;44.804;10.220;2022-11-20T07:16:18;12.75;;;4.63;;
58468;SDS011;44257;44.804;10.220;2022-11-20T07:18:44;12.95;;;6.60;;
58468;SDS011;44257;44.804;10.220;2022-11-20T07:21:10;10.73;;;4.53;;
58468;SDS011;44257;44.804;10.220;2022-11-20T07:23:36;6.80;;;4.53;;
58468;SDS011;44257;44.804;10.220;2022-11-20T07:26:06;8.73;;;4.60;;
58468;SDS011;44257;44.804;10.220;2022-11-20T07:28:33;15.70;;;5.03;;
58468;SDS011;44257;44.804;10.220;2022-11-20T07:30:59;13.32;;;5.93;;
58468;SDS011;44257;44.804;10.220;2022-11-20T07:33:25;9.57;;;5.22;;
58468;SDS011;44257;44.804;10.220;2022-11-20T07:35:51;10.27;;;6.35;;
58468;SDS011;44257;44.804;10.220;2022-11-20T07:38:17;19.40;;;7.05;;
58468;SDS011;44257;44.804;10.220;2022-11-20T07:40:42;12.70;;;8.27;;
58468;SDS011;44257;44.804;10.220;2022-11-20T07:43:09;15.35;;;9.32;;
58468;SDS011;44257;44.804;10.220;2022-11-20T07:45:34;16.92;;;8.57;;
58468;SDS011;44257;44.804;10.220;2022-11-20T07:48:00;23.52;;;7.47;;
58468;SDS011;44257;44.804;10.220;2022-11-20T07:50:26;23.20;;;9.93;;
58468;SDS011;44257;44.804;10.220;2022-11-20T07:52:52;20.48;;;11.13;;
58468;SDS011;44257;44.804;10.220;2022-11-20T07:55:26;15.25;;;7.45;;
58468;SDS011;44257;44.804;10.220;2022-11-20T07:57:55;23.65;;;9.68;;
58468;SDS011;44257;44.804;10.220;2022-11-20T08:00:22;13.98;;;8.15;;
58468;SDS011;44257;44.804;10.220;2022-11-20T08:02:48;20.15;;;10.07;;
58468;SDS011;44257;44.804;10.220;2022-11-20T08:05:14;26.85;;;11.18;;
58468;SDS011;44257;44.804;10.220;2022-11-20T08:07:41;19.60;;;10.40;;
58468;SDS011;44257;44.804;10.220;2022-11-20T08:10:08;17.65;;;8.32;;
58468;SDS011;44257;44.804;10.220;2022-11-20T08:12:35;16.42;;;7.97;;
58468;SDS011;44257;44.804;10.220;2022-11-20T08:15:21;15.82;;;8.75;;
58468;SDS011;44257;44.804;10.220;2022-11-20T08:17:46;21.75;;;7.82;;
58468;SDS011;44257;44.804;10.220;2022-11-20T08:20:12;19.00;;;8.80;;
58468;SDS011;44257;44.804;10.220;2022-11-20T08:22:38;17.55;;;7.65;;
58468;SDS011;44257;44.804;10.220;2022-11-20T08:25:04;14.20;;;9.65;;
58468;SDS011;44257;44.804;10.220;2022-11-20T08:27:31;21.38;;;9.52;;
58468;SDS011;44257;44.804;10.220;2022-11-20T08:29:58;13.23;;;7.53;;
58468;SDS011;44257;44.804;10.220;2022-11-20T08:32:23;14.68;;;8.63;;
58468;SDS011;44257;44.804;10.220;2022-11-20T08:34:49;21.08;;;9.98;;
58468;SDS011;44257;44.804;10.220;2022-11-20T08:37:15;14.80;;;8.20;;
58468;SDS011;44257;44.804;10.220;2022-11-20T08:39:41;18.23;;;9.75;;
58468;SDS011;44257;44.804;10.220;2022-11-20T08:42:07;19.80;;;10.00;;
58468;SDS011;44257;44.804;10.220;2022-11-20T08:44:33;20.67;;;7.82;;
58468;SDS011;44257;44.804;10.220;2022-11-20T08:46:59;15.90;;;7.63;;
58468;SDS011;44257;44.804;10.220;2022-11-20T08:49:25;23.45;;;11.13;;
58468;SDS011;44257;44.804;10.220;2022-11-20T08:51:51;13.77;;;7.65;;
58468;SDS011;44257;44.804;10.220;2022-11-20T08:54:18;14.93;;;7.32;;
58468;SDS011;44257;44.804;10.220;2022-11-20T08:56:47;13.15;;;8.38;;
58468;SDS011;44257;44.804;10.220;2022-11-20T08:59:13;16.52;;;8.18;;
58468;SDS011;44257;44.804;10.220;2022-11-20T09:01:38;18.33;;;7.85;;
58468;SDS011;44257;44.804;10.220;2022-11-20T09:04:05;17.67;;;9.13;;
58468;SDS011;44257;44.804;10.220;2022-11-20T09:06:30;14.70;;;8.10;;
58468;SDS011;44257;44.804;10.220;2022-11-20T09:08:56;13.93;;;7.28;;
58468;SDS011;44257;44.804;10.220;2022-11-20T09:11:22;13.70;;;7.97;;
58468;SDS011;44257;44.804;10.220;2022-11-20T09:13:48;13.73;;;8.93;;
58468;SDS011;44257;44.804;10.220;2022-11-20T09:16:14;15.32;;;7.80;;
58468;SDS011;44257;44.804;10.220;2022-11-20T09:18:40;14.73;;;8.32;;
58468;SDS011;44257;44.804;10.220;2022-11-20T09:21:07;17.27;;;8.07;;
58468;SDS011;44257;44.804;10.220;2022-11-20T09:23:38;13.90;;;8.77;;
58468;SDS011;44257;44.804;10.220;2022-11-20T09:26:05;15.75;;;7.68;;
58468;SDS011;44257;44.804;10.220;2022-11-20T09:28:32;16.20;;;6.63;;
58468;SDS011;44257;44.804;10.220;2022-11-20T09:30:58;13.80;;;6.90;;
58468;SDS011;44257;44.804;10.220;2022-11-20T09:33:24;19.58;;;9.82;;
58468;SDS011;44257;44.804;10.220;2022-11-20T09:35:50;11.38;;;7.25;;
58468;SDS011;44257;44.804;10.220;2022-11-20T09:38:16;16.30;;;8.13;;
58468;SDS011;44257;44.804;10.220;2022-11-20T09:40:46;16.67;;;7.05;;
58468;SDS011;44257;44.804;10.220;2022-11-20T09:46:17;12.50;;;8.63;;
58468;SDS011;44257;44.804;10.220;2022-11-20T09:54:26;13.20;;;8.45;;
58468;SDS011;44257;44.804;10.220;2022-11-20T09:56:59;12.45;;;7.03;;
58468;SDS011;44257;44.804;10.220;2022-11-20T09:59:33;15.90;;;7.60;;
58468;SDS011;44257;44.804;10.220;2022-11-20T10:10:04;14.18;;;8.15;;
58468;SDS011;44257;44.804;10.220;2022-11-20T10:20:30;14.15;;;7.15;;
58468;SDS011;44257;44.804;10.220;2022-11-20T10:26:02;14.73;;;6.90;;
58468;SDS011;44257;44.804;10.220;2022-11-20T10:34:15;18.60;;;7.90;;
58468;SDS011;44257;44.804;10.220;2022-11-20T10:36:55;16.97;;;8.63;;
58468;SDS011;44257;44.804;10.220;2022-11-20T10:42:37;19.33;;;9.35;;
58468;SDS011;44257;44.804;10.220;2022-11-20T10:47:54;13.82;;;8.32;;
58468;SDS011;44257;44.804;10.220;2022-11-20T10:50:48;23.50;;;12.10;;
58468;SDS011;44257;44.804;10.220;2022-11-20T10:53:35;14.57;;;9.48;;
58468;SDS011;44257;44.804;10.220;2022-11-20T11:01:15;14.02;;;7.70;;
58468;SDS011;44257;44.804;10.220;2022-11-20T11:03:43;16.50;;;8.02;;
58468;SDS011;44257;44.804;10.220;2022-11-20T11:08:44;20.35;;;10.95;;
58468;SDS011;44257;44.804;10.220;2022-11-20T11:11:21;19.25;;;10.25;;
58468;SDS011;44257;44.804;10.220;2022-11-20T11:13:47;15.90;;;7.25;;
58468;SDS011;44257;44.804;10.220;2022-11-20T11:16:20;13.75;;;8.43;;
58468;SDS011;44257;44.804;10.220;2022-11-20T11:18:51;12.88;;;9.20;;
58468;SDS011;44257;44.804;10.220;2022-11-20T11:21:28;14.43;;;8.80;;
58468;SDS011;44257;44.804;10.220;2022-11-20T11:23:59;21.65;;;8.50;;
58468;SDS011;44257;44.804;10.220;2022-11-20T11:26:26;22.98;;;10.35;;
58468;SDS011;44257;44.804;10.220;2022-11-20T11:28:56;18.63;;;10.20;;
58468;SDS011;44257;44.804;10.220;2022-11-20T11:31:24;21.27;;;10.93;;
58468;SDS011;44257;44.804;10.220;2022-11-20T11:33:51;19.80;;;9.55;;
58468;SDS011;44257;44.804;10.220;2022-11-20T11:36:18;21.80;;;8.88;;
58468;SDS011;44257;44.804;10.220;2022-11-20T11:38:48;15.75;;;10.63;;
58468;SDS011;44257;44.804;10.220;2022-11-20T11:41:20;19.70;;;10.05;;
58468;SDS011;44257;44.804;10.220;2022-11-20T11:43:54;21.38;;;9.80;;
58468;SDS011;44257;44.804;10.220;2022-11-20T11:46:43;16.30;;;9.73;;
58468;SDS011;44257;44.804;10.220;2022-11-20T11:49:18;25.13;;;10.02;;
58468;SDS011;44257;44.804;10.220;2022-11-20T12:00:08;15.65;;;8.13;;
58468;SDS011;44257;44.804;10.220;2022-11-20T12:05:31;15.75;;;8.13;;
58468;SDS011;44257;44.804;10.220;2022-11-20T12:08:25;24.10;;;10.35;;
58468;SDS011;44257;44.804;10.220;2022-11-20T12:11:19;16.95;;;9.55;;
58468;SDS011;44257;44.804;10.220;2022-11-20T12:16:19;12.57;;;8.48;;
58468;SDS011;44257;44.804;10.220;2022-11-20T12:18:49;17.13;;;11.02;;
58468;SDS011;44257;44.804;10.220;2022-11-20T12:43:43;22.73;;;11.82;;
58468;SDS011;44257;44.804;10.220;2022-11-20T12:50:14;16.30;;;8.87;;
58468;SDS011;44257;44.804;10.220;2022-11-20T12:57:52;22.35;;;11.23;;
58468;SDS011;44257;44.804;10.220;2022-11-20T13:04:00;20.13;;;9.63;;
58468;SDS011;44257;44.804;10.220;2022-11-20T13:06:52;22.75;;;11.98;;
58468;SDS011;44257;44.804;10.220;2022-11-20T13:09:20;24.38;;;12.02;;
58468;SDS011;44257;44.804;10.220;2022-11-20T13:12:01;16.50;;;9.02;;
58468;SDS011;44257;44.804;10.220;2022-11-20T13:14:47;20.30;;;10.40;;
58468;SDS011;44257;44.804;10.220;2022-11-20T13:17:43;16.45;;;9.73;;
58468;SDS011;44257;44.804;10.220;2022-11-20T13:20:25;20.20;;;10.15;;
58468;SDS011;44257;44.804;10.220;2022-11-20T13:22:53;19.90;;;8.48;;
58468;SDS011;44257;44.804;10.220;2022-11-20T13:27:51;18.40;;;8.25;;
58468;SDS011;44257;44.804;10.220;2022-11-20T13:30:18;16.70;;;9.25;;
58468;SDS011;44257;44.804;10.220;2022-11-20T13:35:33;13.73;;;9.70;;
58468;SDS011;44257;44.804;10.220;2022-11-20T13:38:02;19.08;;;9.27;;
58468;SDS011;44257;44.804;10.220;2022-11-20T13:40:30;24.33;;;10.30;;
58468;SDS011;44257;44.804;10.220;2022-11-20T13:45:58;18.02;;;10.38;;
58468;SDS011;44257;44.804;10.220;2022-11-20T13:48:28;20.85;;;9.93;;
58468;SDS011;44257;44.804;10.220;2022-11-20T13:51:27;17.83;;;8.40;;
58468;SDS011;44257;44.804;10.220;2022-11-20T14:00:32;17.33;;;9.10;;
58468;SDS011;44257;44.804;10.220;2022-11-20T14:02:44;22.08;;;9.45;;
58468;SDS011;44257;44.804;10.220;2022-11-20T14:05:27;17.17;;;9.63;;
58468;SDS011;44257;44.804;10.220;2022-11-20T14:07:56;21.77;;;11.07;;
58468;SDS011;44257;44.804;10.220;2022-11-20T14:10:25;17.27;;;9.05;;
58468;SDS011;44257;44.804;10.220;2022-11-20T14:12:52;21.23;;;9.10;;
58468;SDS011;44257;44.804;10.220;2022-11-20T14:17:58;16.83;;;8.13;;
58468;SDS011;44257;44.804;10.220;2022-11-20T14:20:26;20.85;;;9.77;;
58468;SDS011;44257;44.804;10.220;2022-11-20T14:22:55;18.02;;;8.10;;
58468;SDS011;44257;44.804;10.220;2022-11-20T14:25:21;16.48;;;9.57;;
58468;SDS011;44257;44.804;10.220;2022-11-20T14:27:56;15.98;;;8.30;;
58468;SDS011;44257;44.804;10.220;2022-11-20T14:30:42;19.40;;;8.77;;
58468;SDS011;44257;44.804;10.220;2022-11-20T14:33:10;24.42;;;10.73;;
58468;SDS011;44257;44.804;10.220;2022-11-20T14:35:46;18.25;;;9.90;;
58468;SDS011;44257;44.804;10.220;2022-11-20T14:38:14;16.55;;;9.00;;
58468;SDS011;44257;44.804;10.220;2022-11-20T14:40:42;16.50;;;9.40;;
58468;SDS011;44257;44.804;10.220;2022-11-20T14:46:01;20.00;;;8.68;;
58468;SDS011;44257;44.804;10.220;2022-11-20T14:48:35;16.23;;;9.65;;
58468;SDS011;44257;44.804;10.220;2022-11-20T14:51:11;18.55;;;9.82;;
58468;SDS011;44257;44.804;10.220;2022-11-20T14:53:49;21.40;;;9.52;;
58468;SDS011;44257;44.804;10.220;2022-11-20T14:56:20;18.70;;;9.30;;
58468;SDS011;44257;44.804;10.220;2022-11-20T14:58:55;22.00;;;10.60;;
58468;SDS011;44257;44.804;10.220;2022-11-20T15:01:25;22.95;;;9.68;;
58468;SDS011;44257;44.804;10.220;2022-11-20T15:04:13;25.10;;;10.05;;
58468;SDS011;44257;44.804;10.220;2022-11-20T15:06:49;17.55;;;9.00;;
58468;SDS011;44257;44.804;10.220;2022-11-20T15:09:16;16.25;;;9.30;;
58468;SDS011;44257;44.804;10.220;2022-11-20T15:11:51;15.60;;;9.57;;
58468;SDS011;44257;44.804;10.220;2022-11-20T15:14:22;15.43;;;9.82;;
58468;SDS011;44257;44.804;10.220;2022-11-20T15:16:49;20.63;;;9.13;;
58468;SDS011;44257;44.804;10.220;2022-11-20T15:19:20;22.60;;;10.77;;
58468;SDS011;44257;44.804;10.220;2022-11-20T15:21:50;16.40;;;9.05;;
58468;SDS011;44257;44.804;10.220;2022-11-20T15:24:16;16.83;;;8.40;;
58468;SDS011;44257;44.804;10.220;2022-11-20T15:26:42;16.48;;;9.13;;
58468;SDS011;44257;44.804;10.220;2022-11-20T15:29:12;20.10;;;9.65;;
58468;SDS011;44257;44.804;10.220;2022-11-20T15:31:44;13.38;;;9.45;;
58468;SDS011;44257;44.804;10.220;2022-11-20T15:34:10;21.30;;;10.82;;
58468;SDS011;44257;44.804;10.220;2022-11-20T15:36:41;15.57;;;10.35;;
58468;SDS011;44257;44.804;10.220;2022-11-20T15:39:07;20.42;;;9.80;;
58468;SDS011;44257;44.804;10.220;2022-11-20T15:41:37;22.85;;;10.95;;
58468;SDS011;44257;44.804;10.220;2022-11-20T15:44:04;17.70;;;11.00;;
58468;SDS011;44257;44.804;10.220;2022-11-20T15:46:31;22.75;;;10.48;;
58468;SDS011;44257;44.804;10.220;2022-11-20T15:49:02;15.55;;;10.48;;
58468;SDS011;44257;44.804;10.220;2022-11-20T15:53:55;19.02;;;9.18;;
58468;SDS011;44257;44.804;10.220;2022-11-20T15:56:21;19.42;;;9.18;;
58468;SDS011;44257;44.804;10.220;2022-11-20T15:58:48;15.25;;;7.55;;
58468;SDS011;44257;44.804;10.220;2022-11-20T16:01:15;15.10;;;9.75;;
58468;SDS011;44257;44.804;10.220;2022-11-20T16:03:42;17.85;;;9.80;;
58468;SDS011;44257;44.804;10.220;2022-11-20T16:06:08;15.43;;;8.00;;
58468;SDS011;44257;44.804;10.220;2022-11-20T16:08:34;14.70;;;9.35;;
58468;SDS011;44257;44.804;10.220;2022-11-20T16:11:00;12.75;;;8.45;;
58468;SDS011;44257;44.804;10.220;2022-11-20T16:13:26;13.88;;;7.88;;
58468;SDS011;44257;44.804;10.220;2022-11-20T16:16:18;11.88;;;8.30;;
58468;SDS011;44257;44.804;10.220;2022-11-20T16:18:46;11.98;;;7.50;;
58468;SDS011;44257;44.804;10.220;2022-11-20T16:21:12;16.58;;;8.05;;
58468;SDS011;44257;44.804;10.220;2022-11-20T16:23:39;17.98;;;7.97;;
58468;SDS011;44257;44.804;10.220;2022-11-20T16:26:13;22.90;;;10.20;;
58468;SDS011;44257;44.804;10.220;2022-11-20T16:28:42;19.30;;;11.73;;
58468;SDS011;44257;44.804;10.220;2022-11-20T16:31:14;16.17;;;9.32;;
58468;SDS011;44257;44.804;10.220;2022-11-20T16:33:42;22.30;;;11.05;;
58468;SDS011;44257;44.804;10.220;2022-11-20T16:36:14;21.13;;;9.07;;
58468;SDS011;44257;44.804;10.220;2022-11-20T16:38:40;17.77;;;8.90;;
58468;SDS011;44257;44.804;10.220;2022-11-20T16:41:07;14.27;;;7.97;;
58468;SDS011;44257;44.804;10.220;2022-11-20T16:43:45;15.50;;;6.72;;